createdAt,value
2018-11-02T00:00:37.151Z,21.37
2018-11-02T00:03:06.038Z,19.17
2018-11-02T00:05:34.140Z,17.20
2018-11-02T00:08:02.243Z,17.07
2018-11-02T00:10:30.343Z,16.37
2018-11-02T00:12:58.934Z,17.53
2018-11-02T00:15:27.223Z,17.80
2018-11-02T00:17:55.330Z,19.37
2018-11-02T00:20:23.434Z,17.07
2018-11-02T00:22:51.526Z,17.50
2018-11-02T00:25:19.630Z,16.30
2018-11-02T00:27:47.741Z,17.60
2018-11-02T00:30:15.836Z,29.33
2018-11-02T00:32:43.938Z,19.53
2018-11-02T00:35:12.036Z,17.53
2018-11-02T00:37:40.138Z,19.27
2018-11-02T00:40:09.067Z,20.93
2018-11-02T00:42:38.278Z,21.13
2018-11-02T00:45:07.783Z,26.63
2018-11-02T00:47:35.871Z,21.70
2018-11-02T00:50:03.991Z,23.93
2018-11-02T00:52:32.089Z,26.03
2018-11-02T00:55:00.177Z,23.03
2018-11-02T00:57:28.270Z,22.07
2018-11-02T00:59:56.355Z,21.47
2018-11-02T01:02:24.448Z,23.90
2018-11-02T01:04:52.578Z,19.03
2018-11-02T01:07:20.680Z,21.50
2018-11-02T01:09:48.772Z,17.53
2018-11-02T01:12:16.863Z,17.53
2018-11-02T01:14:45.153Z,13.60
2018-11-02T01:17:13.246Z,19.90
2018-11-02T01:19:41.326Z,15.87
2018-11-02T01:22:09.454Z,19.30
2018-11-02T01:24:37.530Z,17.47
2018-11-02T01:27:05.661Z,17.77
2018-11-02T01:29:33.748Z,16.97
2018-11-02T01:32:01.843Z,15.00
2018-11-02T01:34:29.936Z,16.40
2018-11-02T01:36:58.040Z,21.07
2018-11-02T01:39:26.144Z,17.70
2018-11-02T01:41:54.260Z,15.90
2018-11-02T01:44:22.404Z,15.87
2018-11-02T01:46:50.508Z,14.13
2018-11-02T01:49:18.612Z,16.60
2018-11-02T01:51:46.703Z,17.43
2018-11-02T01:54:14.807Z,12.60
2018-11-02T01:56:42.906Z,19.37
2018-11-02T01:59:11.014Z,12.83
2018-11-02T02:01:39.111Z,13.93
2018-11-02T02:04:07.326Z,14.13
2018-11-02T02:06:35.416Z,13.80
2018-11-02T02:09:03.823Z,14.20
2018-11-02T02:11:31.934Z,17.97
2018-11-02T02:14:00.037Z,18.57
2018-11-02T02:16:28.133Z,17.50
2018-11-02T02:18:56.423Z,22.83
2018-11-02T02:21:24.522Z,23.17
2018-11-02T02:23:52.626Z,21.17
2018-11-02T02:26:20.761Z,24.17
2018-11-02T02:28:48.871Z,20.17
2018-11-02T02:31:16.970Z,20.27
2018-11-02T02:33:45.091Z,22.37
2018-11-02T02:36:13.179Z,21.17
2018-11-02T02:38:41.279Z,20.23
2018-11-02T02:41:09.386Z,24.13
2018-11-02T02:43:37.489Z,16.13
2018-11-02T02:46:06.196Z,15.43
2018-11-02T02:48:34.291Z,15.60
2018-11-02T02:51:02.404Z,16.10
2018-11-02T02:53:30.503Z,19.37
2018-11-02T02:55:58.606Z,18.03
2018-11-02T02:58:26.723Z,18.43
2018-11-02T03:00:54.817Z,17.43
2018-11-02T03:03:22.920Z,16.43
2018-11-02T03:05:51.025Z,14.30
2018-11-02T03:08:19.177Z,14.30
2018-11-02T03:10:47.463Z,14.77
2018-11-02T03:13:15.499Z,15.17
2018-11-02T03:15:43.602Z,14.77
2018-11-02T03:18:11.701Z,13.73
2018-11-02T03:20:39.803Z,13.07
2018-11-02T03:23:07.907Z,13.83
2018-11-02T03:25:36.032Z,14.23
2018-11-02T03:28:04.114Z,13.97
2018-11-02T03:30:32.215Z,16.33
2018-11-02T03:33:00.347Z,15.47
2018-11-02T03:35:28.457Z,13.20
2018-11-02T03:37:56.554Z,12.40
2018-11-02T03:40:24.667Z,15.37
2018-11-02T03:42:52.759Z,17.47
2018-11-02T03:45:20.859Z,17.33
2018-11-02T03:47:48.953Z,18.83
2018-11-02T03:50:17.498Z,21.17
2018-11-02T03:52:45.591Z,19.60
2018-11-02T03:55:13.683Z,19.83
2018-11-02T03:57:41.783Z,25.70
2018-11-02T04:00:10.348Z,26.87
2018-11-02T04:02:38.799Z,21.27
2018-11-02T04:05:07.477Z,18.67
2018-11-02T04:07:35.586Z,19.43
2018-11-02T04:10:03.712Z,22.97
2018-11-02T04:12:31.812Z,30.03
2018-11-02T04:14:59.907Z,31.53
2018-11-02T04:17:27.996Z,28.47
2018-11-02T04:19:56.088Z,29.97
2018-11-02T04:22:24.174Z,24.37
2018-11-02T04:24:52.265Z,14.00
2018-11-02T04:27:20.369Z,19.73
2018-11-02T04:29:48.487Z,17.67
2018-11-02T04:32:16.561Z,18.10
2018-11-02T04:34:44.645Z,13.00
2018-11-02T04:37:12.746Z,12.23
2018-11-02T04:39:40.824Z,16.40
2018-11-02T04:42:08.922Z,19.73
2018-11-02T04:44:37.108Z,20.37
2018-11-02T04:47:05.859Z,24.77
2018-11-02T04:49:33.951Z,16.60
2018-11-02T04:52:02.030Z,12.70
2018-11-02T04:54:30.124Z,14.20
2018-11-02T04:56:58.212Z,17.87
2018-11-02T04:59:26.305Z,14.77
2018-11-02T05:01:54.390Z,9.17
2018-11-02T05:04:22.496Z,12.20
2018-11-02T05:06:50.578Z,13.47
2018-11-02T05:09:18.669Z,12.40
2018-11-02T05:11:46.757Z,13.67
2018-11-02T05:14:14.853Z,13.10
2018-11-02T05:16:42.949Z,10.03
2018-11-02T05:19:11.254Z,13.87
2018-11-02T05:21:39.331Z,16.67
2018-11-02T05:24:07.423Z,15.73
2018-11-02T05:26:35.519Z,16.93
2018-11-02T05:29:03.616Z,14.53
2018-11-02T05:31:31.696Z,13.23
2018-11-02T05:33:59.830Z,10.50
2018-11-02T05:36:27.918Z,10.33
2018-11-02T05:38:56.011Z,11.90
2018-11-02T05:41:24.248Z,11.23
2018-11-02T05:43:52.407Z,10.87
2018-11-02T05:46:20.497Z,10.87
2018-11-02T05:48:48.596Z,11.87
2018-11-02T05:51:16.689Z,12.63
2018-11-02T05:53:44.779Z,11.37
2018-11-02T05:56:12.860Z,10.67
2018-11-02T05:58:41.031Z,10.70
2018-11-02T06:01:09.110Z,11.77
2018-11-02T06:03:37.199Z,13.60
2018-11-02T06:06:05.386Z,12.83
2018-11-02T06:08:33.433Z,14.93
2018-11-02T06:11:01.529Z,10.97
2018-11-02T06:13:29.720Z,11.93
2018-11-02T06:15:57.717Z,13.03
2018-11-02T06:18:25.807Z,15.50
2018-11-02T06:20:53.903Z,15.87
2018-11-02T06:23:21.993Z,21.03
2018-11-02T06:25:50.074Z,9.60
2018-11-02T06:28:18.166Z,12.87
2018-11-02T06:30:46.466Z,11.87
2018-11-02T06:33:14.496Z,9.87
2018-11-02T06:35:42.583Z,9.37
2018-11-02T06:38:10.680Z,13.93
2018-11-02T06:40:38.777Z,10.43
2018-11-02T06:43:07.652Z,10.10
2018-11-02T06:45:35.753Z,8.73
2018-11-02T06:48:03.853Z,11.47
2018-11-02T06:50:31.954Z,11.87
2018-11-02T06:53:00.050Z,17.60
2018-11-02T06:55:28.150Z,13.43
2018-11-02T06:57:56.254Z,10.47
2018-11-02T07:00:24.442Z,11.63
2018-11-02T07:02:52.448Z,10.53
2018-11-02T07:05:20.549Z,12.93
2018-11-02T07:07:49.807Z,12.23
2018-11-02T07:10:17.807Z,9.73
2018-11-02T07:12:45.916Z,11.57
2018-11-02T07:15:14.006Z,9.63
2018-11-02T07:17:42.124Z,11.60
2018-11-02T07:20:10.221Z,9.30
2018-11-02T07:22:38.325Z,10.87
2018-11-02T07:25:07.015Z,12.00
2018-11-02T07:27:35.075Z,12.50
2018-11-02T07:30:03.182Z,14.97
2018-11-02T07:32:31.443Z,13.70
2018-11-02T07:34:59.530Z,14.10
2018-11-02T07:37:27.630Z,14.00
2018-11-02T07:39:55.738Z,13.60
2018-11-02T07:42:23.836Z,15.07
2018-11-02T07:44:52.033Z,10.40
2018-11-02T07:47:20.217Z,7.97
2018-11-02T07:49:48.260Z,9.77
2018-11-02T07:52:16.445Z,10.93
2018-11-02T07:54:44.539Z,11.03
2018-11-02T07:57:12.652Z,11.30
2018-11-02T07:59:40.844Z,13.70
2018-11-02T08:02:08.866Z,11.27
2018-11-02T08:04:36.962Z,12.40
2018-11-02T08:07:05.080Z,10.17
2018-11-02T08:09:33.184Z,11.73
2018-11-02T08:12:01.382Z,12.57
2018-11-02T08:14:29.395Z,11.53
2018-11-02T08:16:57.493Z,10.30
2018-11-02T08:19:25.590Z,9.80
2018-11-02T08:21:53.683Z,16.27
2018-11-02T08:24:21.859Z,18.77
2018-11-02T08:26:49.927Z,15.40
2018-11-02T08:29:18.034Z,12.53
2018-11-02T08:31:46.167Z,11.90
2018-11-02T08:34:14.411Z,12.63
2018-11-02T08:36:43.198Z,10.80
2018-11-02T08:39:12.231Z,10.60
2018-11-02T08:41:40.330Z,8.43
2018-11-02T08:44:09.343Z,8.07
2018-11-02T08:46:37.425Z,7.70
2018-11-02T08:49:05.570Z,8.83
2018-11-02T08:51:33.658Z,12.70
2018-11-02T08:54:01.745Z,11.57
2018-11-02T08:56:29.963Z,10.90
2018-11-02T08:58:58.047Z,11.10
2018-11-02T09:01:26.106Z,11.20
2018-11-02T09:03:54.199Z,8.37
2018-11-02T09:06:22.284Z,11.30
2018-11-02T09:08:50.430Z,13.10
2018-11-02T09:11:18.561Z,12.30
2018-11-02T09:13:46.637Z,12.83
2018-11-02T09:16:14.726Z,15.73
2018-11-02T09:18:43.371Z,16.87
2018-11-02T09:21:11.462Z,14.27
2018-11-02T09:23:39.546Z,15.33
2018-11-02T09:26:07.871Z,13.57
2018-11-02T09:28:35.947Z,14.70
2018-11-02T09:31:04.125Z,14.27
2018-11-02T09:33:32.231Z,14.23
2018-11-02T09:36:00.332Z,16.83
2018-11-02T09:38:28.414Z,16.53
2018-11-02T09:40:56.510Z,15.87
2018-11-02T09:43:24.642Z,18.13
2018-11-02T09:45:52.804Z,16.47
2018-11-02T09:48:20.862Z,15.53
2018-11-02T09:50:48.969Z,17.43
2018-11-02T09:53:17.049Z,16.47
2018-11-02T09:55:45.222Z,16.03
2018-11-02T09:58:13.259Z,13.73
2018-11-02T10:00:41.345Z,13.40
2018-11-02T10:03:09.430Z,12.33
2018-11-02T10:05:37.532Z,12.00
2018-11-02T10:08:05.630Z,11.60
2018-11-02T10:10:33.732Z,15.40
2018-11-02T10:13:01.824Z,10.37
2018-11-02T10:15:30.063Z,11.27
2018-11-02T10:17:58.019Z,8.03
2018-11-02T10:20:26.126Z,7.60
2018-11-02T10:22:54.206Z,6.93
2018-11-02T10:25:22.289Z,7.43
2018-11-02T10:27:50.383Z,7.20
2018-11-02T10:30:18.468Z,7.20
2018-11-02T10:32:49.244Z,6.90
2018-11-02T10:35:17.314Z,6.93
2018-11-02T10:37:45.527Z,5.90
2018-11-02T10:40:15.459Z,6.43
2018-11-02T10:42:44.773Z,5.97
2018-11-02T10:45:12.880Z,6.43
2018-11-02T10:47:40.994Z,6.23
2018-11-02T10:50:09.096Z,5.93
2018-11-02T10:52:37.214Z,5.27
2018-11-02T10:55:05.345Z,5.30
2018-11-02T10:57:33.461Z,6.07
2018-11-02T11:00:01.561Z,7.00
2018-11-02T11:02:35.242Z,6.30
2018-11-02T11:05:03.413Z,7.10
2018-11-02T11:07:31.523Z,7.40
2018-11-02T11:09:59.884Z,6.50
2018-11-02T11:12:28.172Z,6.17
2018-11-02T11:14:56.147Z,6.57
2018-11-02T11:17:24.239Z,6.80
2018-11-02T11:19:52.349Z,6.00
2018-11-02T11:22:20.454Z,5.77
2018-11-02T11:24:48.571Z,6.30
2018-11-02T11:27:16.667Z,6.00
2018-11-02T11:29:44.816Z,5.90
2018-11-02T11:32:12.870Z,5.63
2018-11-02T11:34:41.002Z,5.13
2018-11-02T11:37:09.134Z,5.17
2018-11-02T11:39:37.273Z,4.00
2018-11-02T11:42:05.866Z,3.87
2018-11-02T11:44:33.866Z,4.17
2018-11-02T11:47:01.945Z,3.60
2018-11-02T11:49:30.105Z,3.30
2018-11-02T11:51:58.189Z,3.20
2018-11-02T11:54:26.614Z,3.30
2018-11-02T11:56:54.617Z,3.43
2018-11-02T11:59:22.715Z,3.97
2018-11-02T12:01:50.805Z,4.80
2018-11-02T12:04:19.119Z,5.40
2018-11-02T12:06:47.146Z,5.67
2018-11-02T12:09:15.272Z,5.73
2018-11-02T12:11:43.338Z,5.50
2018-11-02T12:14:11.490Z,5.10
2018-11-02T12:16:39.640Z,4.97
2018-11-02T12:19:07.739Z,5.00
2018-11-02T12:21:35.852Z,5.90
2018-11-02T12:24:04.016Z,6.53
2018-11-02T12:26:32.127Z,6.27
2018-11-02T12:29:00.215Z,11.47
2018-11-02T12:31:28.316Z,10.53
2018-11-02T12:33:56.394Z,8.37
2018-11-02T12:36:24.498Z,7.53
2018-11-02T12:38:52.584Z,6.63
2018-11-02T12:41:20.679Z,6.13
2018-11-02T12:43:49.003Z,13.97
2018-11-02T12:46:18.246Z,4.73
2018-11-02T12:48:46.544Z,5.87
2018-11-02T12:51:14.528Z,5.63
2018-11-02T12:53:42.649Z,5.73
2018-11-02T12:56:10.898Z,3.83
2018-11-02T12:58:39.031Z,2.77
2018-11-02T13:01:07.120Z,2.90
2018-11-02T13:03:35.216Z,2.77
2018-11-02T13:06:03.319Z,3.03
2018-11-02T13:08:31.457Z,1.97
2018-11-02T13:10:59.557Z,2.10
2018-11-02T13:13:27.714Z,2.70
2018-11-02T13:15:55.899Z,2.50
2018-11-02T13:18:24.003Z,2.10
2018-11-02T13:20:52.123Z,2.10
2018-11-02T13:23:20.255Z,1.80
2018-11-02T13:25:48.444Z,2.50
2018-11-02T13:28:16.525Z,5.40
2018-11-02T13:30:44.690Z,2.03
2018-11-02T13:33:12.713Z,2.23
2018-11-02T13:35:40.854Z,2.27
2018-11-02T13:38:09.029Z,1.90
2018-11-02T13:40:37.200Z,3.60
2018-11-02T13:43:05.544Z,2.00
2018-11-02T13:45:33.653Z,1.70
2018-11-02T13:48:01.751Z,2.00
2018-11-02T13:50:30.028Z,1.30
2018-11-02T13:52:58.674Z,1.60
2018-11-02T13:55:26.752Z,1.27
2018-11-02T13:57:54.859Z,1.50
2018-11-02T14:00:23.024Z,1.30
2018-11-02T14:02:51.217Z,1.60
2018-11-02T14:05:19.253Z,2.00
2018-11-02T14:07:47.354Z,2.03
2018-11-02T14:10:15.457Z,1.90
2018-11-02T14:12:43.616Z,1.80
2018-11-02T14:15:14.040Z,2.07
2018-11-02T14:17:42.629Z,1.57
2018-11-02T14:20:11.841Z,2.73
2018-11-02T14:22:40.121Z,3.20
2018-11-02T14:25:10.418Z,3.57
2018-11-02T14:27:38.539Z,4.63
2018-11-02T14:30:08.542Z,5.20
2018-11-02T14:32:36.890Z,6.10
2018-11-02T14:35:05.056Z,5.33
2018-11-02T14:37:33.223Z,6.10
2018-11-02T14:40:01.267Z,6.77
2018-11-02T14:42:29.377Z,5.93
2018-11-02T14:44:57.487Z,4.97
2018-11-02T14:47:25.599Z,6.03
2018-11-02T14:49:53.724Z,5.03
2018-11-02T14:52:21.819Z,5.20
2018-11-02T14:54:49.918Z,4.73
2018-11-02T14:57:18.005Z,5.27
2018-11-02T14:59:46.117Z,11.27
2018-11-02T15:02:14.198Z,8.93
2018-11-02T15:04:42.289Z,5.70
2018-11-02T15:07:10.369Z,5.10
2018-11-02T15:09:38.465Z,5.40
2018-11-02T15:12:06.564Z,6.40
2018-11-02T15:14:34.840Z,6.23
2018-11-02T15:17:02.931Z,7.00
2018-11-02T15:19:31.022Z,6.63
2018-11-02T15:21:59.113Z,8.10
2018-11-02T15:24:27.195Z,6.53
2018-11-02T15:26:55.286Z,4.50
2018-11-02T15:29:23.367Z,5.17
2018-11-02T15:31:51.618Z,5.03
2018-11-02T15:34:19.698Z,4.83
2018-11-02T15:36:47.832Z,7.47
2018-11-02T15:39:15.911Z,7.40
2018-11-02T15:41:44.004Z,10.00
2018-11-02T15:44:12.159Z,7.30
2018-11-02T15:46:40.193Z,9.97
2018-11-02T15:49:08.281Z,15.17
2018-11-02T15:51:36.374Z,9.10
2018-11-02T15:54:04.723Z,8.30
2018-11-02T15:56:32.824Z,8.40
2018-11-02T15:59:00.910Z,9.47
2018-11-02T16:01:29.004Z,14.10
2018-11-02T16:03:57.087Z,10.10
2018-11-02T16:06:25.190Z,11.47
2018-11-02T16:08:53.290Z,9.03
2018-11-02T16:11:21.380Z,9.13
2018-11-02T16:13:49.475Z,10.40
2018-11-02T16:16:17.563Z,8.63
2018-11-02T16:18:45.654Z,7.17
2018-11-02T16:21:13.749Z,8.43
2018-11-02T16:23:41.837Z,7.70
2018-11-02T16:26:10.106Z,9.37
2018-11-02T16:28:38.374Z,10.83
2018-11-02T16:31:06.468Z,9.70
2018-11-02T16:33:34.564Z,9.50
2018-11-02T16:36:02.643Z,9.67
2018-11-02T16:38:30.738Z,9.67
2018-11-02T16:40:58.814Z,8.70
2018-11-02T16:43:26.920Z,8.77
2018-11-02T16:45:55.001Z,8.60
2018-11-02T16:48:23.104Z,10.00
2018-11-02T16:50:51.195Z,11.73
2018-11-02T16:53:19.283Z,18.17
2018-11-02T16:55:47.455Z,15.43
2018-11-02T16:58:15.479Z,16.03
2018-11-02T17:00:43.548Z,11.90
2018-11-02T17:03:11.642Z,15.17
2018-11-02T17:05:39.733Z,13.17
2018-11-02T17:08:07.836Z,16.77
2018-11-02T17:10:35.963Z,10.37
2018-11-02T17:13:04.191Z,10.87
2018-11-02T17:15:32.276Z,11.13
2018-11-02T17:18:00.428Z,11.93
2018-11-02T17:20:28.467Z,12.87
2018-11-02T17:22:56.604Z,11.27
2018-11-02T17:25:24.705Z,10.67
2018-11-02T17:27:52.883Z,12.13
2018-11-02T17:30:20.928Z,13.57
2018-11-02T17:32:49.015Z,14.10
2018-11-02T17:35:17.112Z,15.07
2018-11-02T17:37:45.222Z,16.87
2018-11-02T17:40:14.529Z,17.40
2018-11-02T17:42:43.075Z,19.07
2018-11-02T17:45:11.190Z,17.67
2018-11-02T17:47:40.350Z,15.27
2018-11-02T17:50:09.790Z,14.70
2018-11-02T17:52:37.881Z,13.57
2018-11-02T17:55:06.014Z,13.17
2018-11-02T17:57:34.283Z,10.57
2018-11-02T18:00:02.382Z,9.43
2018-11-02T18:02:30.474Z,9.67
2018-11-02T18:04:58.624Z,13.60
2018-11-02T18:07:26.711Z,10.57
2018-11-02T18:09:54.799Z,10.80
2018-11-02T18:12:22.974Z,10.43
2018-11-02T18:14:50.985Z,11.17
2018-11-02T18:17:19.087Z,11.33
2018-11-02T18:19:47.201Z,12.67
2018-11-02T18:22:15.350Z,11.60
2018-11-02T18:24:43.383Z,10.87
2018-11-02T18:27:11.534Z,11.30
2018-11-02T18:29:39.617Z,19.90
2018-11-02T18:32:07.721Z,8.33
2018-11-02T18:34:35.827Z,6.93
2018-11-02T18:37:04.785Z,6.57
2018-11-02T18:39:32.935Z,14.70
2018-11-02T18:42:00.997Z,12.13
2018-11-02T18:44:29.130Z,8.43
2018-11-02T18:46:57.179Z,7.60
2018-11-02T18:49:25.298Z,6.37
2018-11-02T18:51:53.498Z,5.53
2018-11-02T18:54:22.591Z,7.97
2018-11-02T18:56:50.955Z,10.10
2018-11-02T18:59:19.286Z,9.00
2018-11-02T19:01:47.782Z,9.50
2018-11-02T19:04:15.862Z,9.70
2018-11-02T19:06:43.944Z,9.17
2018-11-02T19:09:12.042Z,11.83
2018-11-02T19:11:40.336Z,11.47
2018-11-02T19:14:08.591Z,8.77
2018-11-02T19:16:36.780Z,7.87
2018-11-02T19:19:05.351Z,10.73
2018-11-02T19:21:33.588Z,13.73
2018-11-02T19:24:01.606Z,10.23
2018-11-02T19:26:29.733Z,6.27
2018-11-02T19:28:57.874Z,5.73
2018-11-02T19:31:25.992Z,7.40
2018-11-02T19:33:54.084Z,7.10
2018-11-02T19:36:22.165Z,5.00
2018-11-02T19:38:50.286Z,5.40
2018-11-02T19:41:18.350Z,5.20
2018-11-02T19:43:46.478Z,10.83
2018-11-02T19:46:14.532Z,11.27
2018-11-02T19:48:42.629Z,8.67
2018-11-02T19:51:10.845Z,13.33
2018-11-02T19:53:39.191Z,13.20
2018-11-02T19:56:07.203Z,15.03
2018-11-02T19:58:35.303Z,15.80
2018-11-02T20:01:03.477Z,14.77
2018-11-02T20:03:31.663Z,13.97
2018-11-02T20:05:59.751Z,12.50
2018-11-02T20:08:28.004Z,12.00
2018-11-02T20:10:56.100Z,12.03
2018-11-02T20:13:24.205Z,14.77
2018-11-02T20:15:52.307Z,15.90
2018-11-02T20:18:20.396Z,11.67
2018-11-02T20:20:48.492Z,10.57
2018-11-02T20:23:16.571Z,10.87
2018-11-02T20:25:44.672Z,10.03
2018-11-02T20:28:12.757Z,10.50
2018-11-02T20:30:40.859Z,12.10
2018-11-02T20:33:08.964Z,20.80
2018-11-02T20:35:37.111Z,11.57
2018-11-02T20:38:05.159Z,15.47
2018-11-02T20:40:33.327Z,18.43
2018-11-02T20:43:01.372Z,13.93
2018-11-02T20:45:29.489Z,13.77
2018-11-02T20:47:57.579Z,15.37
2018-11-02T20:50:25.696Z,14.20
2018-11-02T20:52:53.974Z,13.43
2018-11-02T20:55:22.089Z,13.57
2018-11-02T20:57:50.178Z,13.50
2018-11-02T21:00:21.696Z,12.67
2018-11-02T21:02:49.866Z,11.07
2018-11-02T21:05:18.855Z,11.57
2018-11-02T21:07:47.446Z,10.53
2018-11-02T21:10:16.752Z,11.63
2018-11-02T21:12:44.986Z,10.37
2018-11-02T21:15:21.424Z,10.77
2018-11-02T21:17:49.961Z,10.63
2018-11-02T21:20:19.447Z,10.50
2018-11-02T21:22:47.535Z,10.47
2018-11-02T21:25:15.749Z,9.90
2018-11-02T21:27:44.412Z,9.57
2018-11-02T21:30:15.692Z,10.43
2018-11-02T21:32:44.756Z,9.97
2018-11-02T21:35:12.895Z,10.43
2018-11-02T21:37:41.018Z,10.47
2018-11-02T21:40:11.999Z,10.10
2018-11-02T21:42:40.122Z,10.13
2018-11-02T21:45:08.220Z,10.67
2018-11-02T21:47:36.317Z,10.63
2018-11-02T21:50:04.736Z,13.80
2018-11-02T21:52:32.846Z,12.53
2018-11-02T21:55:00.931Z,12.90
2018-11-02T21:57:29.033Z,10.10
2018-11-02T21:59:57.131Z,10.43
2018-11-02T22:02:25.232Z,10.20
2018-11-02T22:04:53.582Z,10.27
2018-11-02T22:07:21.677Z,10.30
2018-11-02T22:09:49.759Z,9.00
2018-11-02T22:12:17.880Z,10.43
2018-11-02T22:14:45.964Z,10.07
2018-11-02T22:17:14.207Z,10.70
2018-11-02T22:19:42.291Z,9.60
2018-11-02T22:22:10.407Z,10.17
2018-11-02T22:24:38.723Z,10.90
2018-11-02T22:27:06.840Z,10.20
2018-11-02T22:29:34.903Z,10.63
2018-11-02T22:32:02.987Z,10.93
2018-11-02T22:34:31.083Z,10.30
2018-11-02T22:36:59.163Z,10.37
2018-11-02T22:39:27.273Z,10.27
2018-11-02T22:41:55.451Z,9.90
2018-11-02T22:44:23.497Z,9.87
2018-11-02T22:46:51.574Z,9.67
2018-11-02T22:49:19.666Z,10.20
2018-11-02T22:51:47.746Z,9.87
2018-11-02T22:54:15.845Z,10.60
2018-11-02T22:56:43.933Z,10.30
2018-11-02T22:59:12.024Z,9.67
2018-11-02T23:01:40.113Z,10.27
2018-11-02T23:04:08.204Z,9.70
2018-11-02T23:06:36.286Z,10.20
2018-11-02T23:09:05.931Z,10.13
2018-11-02T23:11:34.025Z,10.53
2018-11-02T23:14:02.131Z,10.20
2018-11-02T23:16:30.222Z,10.20
2018-11-02T23:18:58.325Z,10.67
2018-11-02T23:21:26.403Z,9.87
2018-11-02T23:23:54.706Z,9.60
2018-11-02T23:26:22.796Z,10.27
2018-11-02T23:28:50.886Z,10.27
2018-11-02T23:31:18.980Z,9.30
2018-11-02T23:33:47.068Z,9.97
2018-11-02T23:36:15.167Z,10.30
2018-11-02T23:38:43.261Z,10.07
2018-11-02T23:41:11.349Z,10.43
2018-11-02T23:43:39.468Z,10.27
2018-11-02T23:46:07.583Z,10.17
2018-11-02T23:48:35.670Z,9.87
2018-11-02T23:51:03.783Z,9.77
2018-11-02T23:53:31.887Z,11.17
2018-11-02T23:56:00.004Z,9.97
2018-11-02T23:58:28.084Z,10.23
